createdAt,value
2018-12-31T00:01:39.689Z,64.82
2018-12-31T00:06:43.107Z,65.10
2018-12-31T00:11:47.613Z,65.11
2018-12-31T00:16:51.089Z,65.09
2018-12-31T00:21:54.506Z,65.46
2018-12-31T00:26:57.909Z,65.26
2018-12-31T00:32:01.483Z,65.40
2018-12-31T00:37:04.855Z,65.10
2018-12-31T00:42:08.351Z,65.25
2018-12-31T00:47:11.759Z,64.92
2018-12-31T00:52:15.070Z,65.19
2018-12-31T00:57:18.521Z,65.22
2018-12-31T01:02:21.860Z,65.20
2018-12-31T01:07:25.339Z,65.25
2018-12-31T01:12:28.716Z,65.43
2018-12-31T01:17:32.143Z,65.44
2018-12-31T01:22:35.521Z,65.50
2018-12-31T01:27:38.940Z,65.60
2018-12-31T01:32:42.187Z,65.65
2018-12-31T01:37:45.587Z,65.53
2018-12-31T01:42:48.849Z,65.80
2018-12-31T01:47:52.148Z,65.47
2018-12-31T01:52:55.568Z,65.50
2018-12-31T01:57:58.829Z,65.68
2018-12-31T02:03:02.092Z,65.95
2018-12-31T02:08:05.468Z,65.53
2018-12-31T02:13:08.760Z,65.85
2018-12-31T02:18:12.239Z,65.65
2018-12-31T02:23:15.500Z,65.69
2018-12-31T02:28:18.762Z,65.65
2018-12-31T02:33:22.241Z,65.62
2018-12-31T02:38:25.522Z,65.74
2018-12-31T02:43:28.801Z,65.84
2018-12-31T02:48:32.150Z,65.84
2018-12-31T02:53:35.551Z,65.75
2018-12-31T02:58:39.065Z,65.85
2018-12-31T03:03:42.334Z,65.84
2018-12-31T03:08:45.724Z,65.93
2018-12-31T03:13:49.009Z,66.20
2018-12-31T03:18:52.380Z,66.19
2018-12-31T03:23:55.841Z,65.82
2018-12-31T03:28:59.101Z,65.97
2018-12-31T03:34:02.377Z,66.17
2018-12-31T03:39:07.289Z,66.24
2018-12-31T03:44:10.585Z,66.28
2018-12-31T03:49:13.965Z,66.09
2018-12-31T03:54:17.230Z,66.26
2018-12-31T03:59:20.521Z,66.22
2018-12-31T04:04:24.952Z,66.26
2018-12-31T04:09:28.220Z,66.38
2018-12-31T04:14:31.583Z,66.40
2018-12-31T04:19:34.980Z,66.37
2018-12-31T04:24:38.289Z,66.13
2018-12-31T04:29:41.546Z,66.15
2018-12-31T04:34:44.970Z,66.34
2018-12-31T04:39:48.241Z,66.35
2018-12-31T04:44:51.714Z,66.52
2018-12-31T04:49:55.029Z,66.60
2018-12-31T04:54:58.399Z,66.56
2018-12-31T05:00:01.658Z,66.55
2018-12-31T05:05:05.344Z,66.46
2018-12-31T05:10:08.635Z,66.09
2018-12-31T05:15:12.092Z,66.19
2018-12-31T05:20:15.424Z,66.24
2018-12-31T05:25:18.702Z,66.33
2018-12-31T05:30:22.112Z,66.47
2018-12-31T05:35:25.399Z,66.28
2018-12-31T05:40:28.901Z,66.49
2018-12-31T05:45:32.204Z,66.68
2018-12-31T05:50:35.660Z,66.89
2018-12-31T05:55:38.906Z,66.73
2018-12-31T06:00:42.470Z,66.48
2018-12-31T06:05:45.723Z,66.61
2018-12-31T06:10:49.132Z,66.80
2018-12-31T06:15:52.436Z,66.79
2018-12-31T06:20:55.804Z,66.69
2018-12-31T06:25:59.187Z,66.51
2018-12-31T06:31:02.453Z,66.66
2018-12-31T06:36:05.809Z,66.55
2018-12-31T06:41:09.169Z,66.71
2018-12-31T06:46:12.433Z,66.61
2018-12-31T06:51:15.881Z,66.61
2018-12-31T06:56:19.228Z,66.55
2018-12-31T07:01:22.524Z,66.66
2018-12-31T07:06:25.777Z,66.74
2018-12-31T07:11:29.037Z,66.87
2018-12-31T07:16:32.384Z,66.70
2018-12-31T07:21:35.627Z,66.56
2018-12-31T07:26:39.095Z,66.56
2018-12-31T07:31:42.348Z,66.20
2018-12-31T07:36:45.771Z,66.04
2018-12-31T07:41:49.130Z,66.09
2018-12-31T07:46:52.548Z,66.06
2018-12-31T07:51:55.806Z,66.11
2018-12-31T07:56:59.160Z,65.68
2018-12-31T08:02:02.576Z,65.86
2018-12-31T08:07:05.988Z,66.04
2018-12-31T08:12:09.421Z,65.75
2018-12-31T08:17:12.753Z,65.97
2018-12-31T08:22:16.131Z,66.02
2018-12-31T08:27:19.389Z,65.80
2018-12-31T08:32:22.782Z,65.65
2018-12-31T08:37:26.184Z,66.06
2018-12-31T08:42:29.492Z,65.95
2018-12-31T08:47:32.752Z,65.80
2018-12-31T08:52:36.204Z,65.90
2018-12-31T08:57:39.653Z,65.70
2018-12-31T09:02:43.059Z,65.70
2018-12-31T09:07:46.401Z,65.89
2018-12-31T09:12:49.698Z,65.26
2018-12-31T09:17:54.116Z,65.80
2018-12-31T09:22:57.482Z,65.62
2018-12-31T09:28:00.803Z,65.67
2018-12-31T09:33:04.122Z,65.53
2018-12-31T09:38:07.507Z,65.32
2018-12-31T09:43:10.892Z,65.60
2018-12-31T09:48:14.187Z,65.43
2018-12-31T09:53:17.622Z,65.77
2018-12-31T09:58:20.901Z,65.79
2018-12-31T10:03:24.328Z,65.51
2018-12-31T10:08:27.592Z,65.48
2018-12-31T10:13:30.936Z,65.44
2018-12-31T10:18:34.404Z,65.49
2018-12-31T10:23:37.687Z,65.30
2018-12-31T10:28:41.009Z,65.90
2018-12-31T10:33:44.497Z,65.57
2018-12-31T10:38:51.205Z,65.46
2018-12-31T10:43:51.244Z,65.38
2018-12-31T10:48:54.672Z,65.44
2018-12-31T10:53:57.976Z,65.30
2018-12-31T10:59:01.723Z,65.28
2018-12-31T11:04:05.824Z,65.52
2018-12-31T11:09:09.456Z,65.57
2018-12-31T11:14:12.900Z,65.70
2018-12-31T11:19:16.172Z,65.65
2018-12-31T11:24:19.817Z,65.65
2018-12-31T11:29:23.322Z,65.48
2018-12-31T11:34:26.684Z,65.57
2018-12-31T11:39:30.052Z,65.17
2018-12-31T11:44:33.614Z,65.20
2018-12-31T11:49:36.861Z,65.59
2018-12-31T11:54:40.274Z,65.49
2018-12-31T11:59:43.820Z,65.55
2018-12-31T12:04:47.139Z,65.50
2018-12-31T12:09:51.327Z,65.61
2018-12-31T12:14:54.832Z,65.60
2018-12-31T12:19:58.345Z,65.61
2018-12-31T12:25:01.645Z,65.93
2018-12-31T12:30:05.612Z,65.96
2018-12-31T12:35:08.978Z,66.07
2018-12-31T12:40:12.348Z,66.18
2018-12-31T12:45:15.806Z,66.26
2018-12-31T12:50:19.087Z,66.10
2018-12-31T12:55:22.668Z,65.89
2018-12-31T13:00:26.105Z,66.07
2018-12-31T13:05:29.640Z,65.69
2018-12-31T13:10:33.129Z,66.05
2018-12-31T13:15:39.682Z,66.42
2018-12-31T13:20:43.218Z,65.61
2018-12-31T13:25:47.688Z,65.65
2018-12-31T13:30:51.074Z,65.70
2018-12-31T13:35:54.519Z,65.51
2018-12-31T13:40:57.891Z,65.57
2018-12-31T13:46:01.319Z,65.52
2018-12-31T13:51:04.753Z,65.41
2018-12-31T13:56:08.437Z,65.49
2018-12-31T14:01:11.871Z,65.36
2018-12-31T14:06:15.447Z,65.50
2018-12-31T14:11:19.049Z,65.68
2018-12-31T14:16:22.579Z,65.75
2018-12-31T14:21:26.108Z,65.69
2018-12-31T14:26:29.555Z,65.76
2018-12-31T14:31:33.209Z,65.94
2018-12-31T14:36:36.779Z,65.99
2018-12-31T14:41:40.140Z,66.11
2018-12-31T14:46:43.705Z,65.97
2018-12-31T14:51:47.184Z,66.20
2018-12-31T14:56:50.720Z,65.90
2018-12-31T15:01:54.127Z,66.41
2018-12-31T15:06:57.496Z,66.67
2018-12-31T15:12:00.896Z,66.56
2018-12-31T15:17:04.420Z,66.44
2018-12-31T15:22:07.923Z,66.44
2018-12-31T15:27:11.517Z,66.94
2018-12-31T15:32:15.065Z,66.76
2018-12-31T15:37:18.540Z,66.46
2018-12-31T15:42:21.961Z,66.50
2018-12-31T15:47:25.476Z,66.84
2018-12-31T15:52:28.966Z,66.64
2018-12-31T15:57:32.535Z,67.11
2018-12-31T16:02:36.021Z,66.78
2018-12-31T16:07:45.594Z,66.64
2018-12-31T16:12:42.965Z,67.18
2018-12-31T16:17:46.384Z,67.29
2018-12-31T16:22:49.773Z,67.08
2018-12-31T16:27:53.314Z,66.98
2018-12-31T16:32:56.755Z,67.31
2018-12-31T16:38:00.159Z,66.98
2018-12-31T16:43:03.624Z,67.37
2018-12-31T16:48:07.036Z,67.73
2018-12-31T16:53:10.589Z,67.46
2018-12-31T16:58:14.241Z,67.69
2018-12-31T17:03:17.934Z,67.46
2018-12-31T17:08:21.326Z,67.38
2018-12-31T17:13:24.920Z,67.59
2018-12-31T17:18:28.268Z,67.60
2018-12-31T17:23:31.729Z,67.44
2018-12-31T17:28:35.085Z,67.49
2018-12-31T17:33:38.735Z,67.55
2018-12-31T17:38:42.425Z,67.84
2018-12-31T17:43:46.033Z,67.48
2018-12-31T17:48:49.597Z,67.53
2018-12-31T17:53:52.980Z,67.64
2018-12-31T17:58:56.544Z,67.85
2018-12-31T18:03:59.890Z,67.76
2018-12-31T18:09:03.395Z,67.70
2018-12-31T18:14:06.837Z,67.55
2018-12-31T18:19:10.345Z,67.75
2018-12-31T18:24:13.843Z,67.72
2018-12-31T18:29:17.196Z,67.82
2018-12-31T18:34:20.768Z,67.89
2018-12-31T18:39:24.117Z,67.85
2018-12-31T18:44:27.416Z,67.64
2018-12-31T18:49:30.693Z,67.68
2018-12-31T18:54:34.086Z,67.51
2018-12-31T18:59:37.618Z,67.40
2018-12-31T19:04:41.012Z,67.23
2018-12-31T19:09:44.452Z,67.57
2018-12-31T19:14:47.804Z,67.59
2018-12-31T19:19:51.089Z,67.65
2018-12-31T19:24:54.364Z,67.82
2018-12-31T19:29:57.711Z,67.52
2018-12-31T19:35:01.008Z,67.84
2018-12-31T19:40:04.566Z,67.86
2018-12-31T19:45:07.891Z,67.93
2018-12-31T19:50:11.391Z,67.90
2018-12-31T19:55:14.912Z,68.03
2018-12-31T20:00:18.328Z,67.75
2018-12-31T20:05:21.693Z,67.99
2018-12-31T20:10:25.167Z,68.01
2018-12-31T20:15:28.608Z,68.01
2018-12-31T20:20:32.256Z,67.98
2018-12-31T20:25:35.648Z,67.77
2018-12-31T20:30:39.228Z,67.72
2018-12-31T20:35:42.784Z,68.13
2018-12-31T20:40:46.193Z,67.96
2018-12-31T20:45:49.816Z,67.97
2018-12-31T20:50:53.153Z,68.02
2018-12-31T20:55:56.610Z,68.04
2018-12-31T21:00:59.883Z,68.32
2018-12-31T21:06:03.289Z,68.40
2018-12-31T21:11:06.770Z,68.49
2018-12-31T21:16:10.223Z,68.59
2018-12-31T21:21:13.708Z,68.58
2018-12-31T21:26:17.204Z,68.40
2018-12-31T21:31:20.563Z,68.45
2018-12-31T21:36:23.988Z,68.67
2018-12-31T21:41:27.486Z,68.72
2018-12-31T21:46:31.164Z,68.24
2018-12-31T21:51:34.665Z,68.34
2018-12-31T21:56:38.161Z,68.30
2018-12-31T22:01:41.668Z,68.67
2018-12-31T22:06:45.139Z,68.58
2018-12-31T22:11:48.506Z,68.74
2018-12-31T22:16:51.940Z,68.64
2018-12-31T22:21:55.221Z,68.64
2018-12-31T22:26:58.561Z,68.85
2018-12-31T22:32:01.976Z,68.77
2018-12-31T22:37:05.403Z,68.60
2018-12-31T22:42:08.683Z,68.92
2018-12-31T22:47:12.073Z,68.78
2018-12-31T22:52:15.344Z,68.80
2018-12-31T22:57:18.736Z,68.82
2018-12-31T23:02:22.005Z,68.82
2018-12-31T23:07:25.293Z,68.82
2018-12-31T23:12:28.725Z,68.70
2018-12-31T23:17:32.196Z,68.69
2018-12-31T23:22:35.604Z,68.64
2018-12-31T23:27:38.884Z,68.59
2018-12-31T23:32:42.266Z,68.32
2018-12-31T23:37:46.100Z,68.36
2018-12-31T23:42:49.601Z,68.21
2018-12-31T23:47:52.907Z,68.22
2018-12-31T23:52:56.411Z,68.48
2018-12-31T23:57:59.672Z,68.63
